logo
Search for airport 
image banner adimage banner adimage banner ad
image banner ad

LOAR - Altlichtenwarth

Located in District Mistelbach, Austria

ICAO - LOAR, IATA -

Data provided by Airmate  

General information

Coordinates: N48°39'58" E16°49'31"
Elevation is 604 feet MSL.
 
View others Airports in Lower Austria

Operational data

Special qualification required
Current time UTC:
Current local time:
Weather at : LZMC - Malacky ( 36 km )
TAF: TAF LZMC 150730Z 1509/1518 31010KT CAVOK BECMG 1510/1512 31016KT 9999 SCT040 TEMPO 1512/1518 32018KT 6000 -SHRA SCT017 SCT030TCU BKN040 PROB40 TEMPO 1513/1518 32012G24KT 5000 TSRA SCT012 FEW030CB BKN035
View NOTAMs / SUP AIP / TFR affecting this airport [VIEW]
Communications frequencies: [VIEW]

Runways:

RWY identifierQFULength (ft)Width (ft)SurfaceLDA (ft)
04164082UNK
22164082UNK

Airport contact information

Address: District Mistelbach Austria

Other aviation service providers

Aviation club (not for profit)

Fliegergruppe Weinviertel

Fliegergruppe Weinviertel
office@loar.at+43/664/8011730604
+43/664/8011730604

Satellite view of LOAR